Puli — TCSN7 — position and weather

sailwx.info

Track history (hours):
 
Tides and Currents Weather Stations Pressure Air Temp Water Temp Dewpoint Dewpoint Depression Visibility Wind Speed Wind Dir Waves Ship Positions

Puli

Last reported at 2015-May-20 09:30 UTC. Time now 2015-Jul-02 23:13 UTC.
Position N 35°60' W 005°28'.
Warning: this ship's position is 43 days out of date.

Length 512 m; draft 7.2 m.

Type: Ship. MMSI: 271000927.

Date/timePositionNaut miles runAvg speedWind from/ knotsBaromVisibWave heightAir tempDewpointWater temp
2015-May-20 09:30N 35°60' W 005°28'9 9.3
2015-May-20 08:34N 36°05' W 005°19'3 3.3
2015-May-20 07:31N 36°07' W 005°15'18812.6
2015-May-19 16:34N 36°23' W 001°23'1412.9
2015-May-19 15:30N 36°26' W 001°06'1212.9
2015-May-19 14:33N 36°28' W 000°51'1312.8
2015-May-19 13:33N 36°30' W 000°36'1212.5
2015-May-19 12:33N 36°32' W 000°20'1312.5
2015-May-19 11:33N 36°34' W 000°05'2512.5
2015-May-19 09:33N 36°38' E 000°26'1212.2
2015-May-19 08:33N 36°40' E 000°41'2911.8
2015-May-19 06:04N 36°46' E 001°17'811.5
2015-May-19 05:21N 36°47' E 001°27'1012.0
2015-May-19 04:31N 36°50' E 001°39'1212.2
2015-May-19 03:33N 36°52' E 001°53'1212.1
2015-May-19 02:33N 36°54' E 002°08'1211.9
2015-May-19 01:33N 36°55' E 002°23'1311.8
2015-May-19 00:24N 36°57' E 002°40'1012.1
2015-May-18 23:33N 36°59' E 002°52'1711.8
2015-May-18 22:05N 37°02' E 003°14'43711.6
2015-May-17 08:24N 37°31' E 012°22'7011.2
2015-May-17 02:08N 36°54' E 013°36'611.0
2015-May-17 01:33N 36°52' E 013°44'1111.2
2015-May-17 00:33N 36°49' E 013°57'1111.4
2015-May-16 23:33N 36°45' E 014°11'1110.9
2015-May-16 22:33N 36°42' E 014°24'  
2015-May-11 10:33N 39°49' E 018°34'  
Track history (hours):
 
Tides and Currents Weather Stations Pressure Air Temp Water Temp Dewpoint Dewpoint Depression Visibility Wind Speed Wind Dir Waves Ship Positions

Puli

Last reported at 2015-May-20 09:30 UTC. Time now 2015-Jul-02 23:13 UTC.
Position N 35°60' W 005°28'.
Warning: this ship's position is 43 days out of date.

Length 512 m; draft 7.2 m.

Type: Ship. MMSI: 271000927.

Date/timePositionNaut miles runAvg speedWind from/ knotsBaromVisibWave heightAir tempDewpointWater temp
2015-May-20 09:30N 35°60' W 005°28'9 9.3
2015-May-20 08:34N 36°05' W 005°19'3 3.3
2015-May-20 07:31N 36°07' W 005°15'18812.6
2015-May-19 16:34N 36°23' W 001°23'1412.9
2015-May-19 15:30N 36°26' W 001°06'1212.9
2015-May-19 14:33N 36°28' W 000°51'1312.8
2015-May-19 13:33N 36°30' W 000°36'1212.5
2015-May-19 12:33N 36°32' W 000°20'1312.5
2015-May-19 11:33N 36°34' W 000°05'2512.5
2015-May-19 09:33N 36°38' E 000°26'1212.2
2015-May-19 08:33N 36°40' E 000°41'2911.8
2015-May-19 06:04N 36°46' E 001°17'811.5
2015-May-19 05:21N 36°47' E 001°27'1012.0
2015-May-19 04:31N 36°50' E 001°39'1212.2
2015-May-19 03:33N 36°52' E 001°53'1212.1
2015-May-19 02:33N 36°54' E 002°08'1211.9
2015-May-19 01:33N 36°55' E 002°23'1311.8
2015-May-19 00:24N 36°57' E 002°40'1012.1
2015-May-18 23:33N 36°59' E 002°52'1711.8
2015-May-18 22:05N 37°02' E 003°14'43711.6
2015-May-17 08:24N 37°31' E 012°22'7011.2
2015-May-17 02:08N 36°54' E 013°36'611.0
2015-May-17 01:33N 36°52' E 013°44'1111.2
2015-May-17 00:33N 36°49' E 013°57'1111.4
2015-May-16 23:33N 36°45' E 014°11'1110.9
2015-May-16 22:33N 36°42' E 014°24'  
2015-May-11 10:33N 39°49' E 018°34'  

Dump ship's entire track history